FIMP/MRU METAR and TAF weather

Enter ICAO airport designator
Station Type Date Time Source
FIMP METAR 2019/02/23 17:00 UTC NOAA

FIMP 231700Z 34003KT 9999 SCT017 28/24 Q1013


Station Type Date Time Source
FIMP Decoded METAR 2019/02/23 17:00 UTC NOAA

Plaisance Mauritius , Mauritius (FIMP) 20-26S 057-40E 57M
Feb 23, 2019 - 12:00 PM EST / 2019.02.23 1700 UTC
Wind: from the NNW (340 degrees) at 3 MPH (3 KT):0
Visibility: greater than 7 mile(s):0
Sky conditions: partly cloudy
Temperature: 82 F (28 C)
Dew Point: 75 F (24 C)
Relative Humidity: 78%
Pressure (altimeter): 29.91 in. Hg (1013 hPa)
ob: FIMP 231700Z 34003KT 9999 SCT017 28/24 Q1013
cycle: 17

Station Type Date Time Source
FIMP TAF 2019/02/23 18:33 UTC NOAA

TAF FIMP 231715Z 2318/2500 06008KT 9999 SCT018
TEMPO 2318/2404 32005KT PROB30
TEMPO 2410/2415 3000 -SHRA/TSRA FEW008 FEW012CB BKN015


Example: see airport list